Thomson Spirit — 9HA2336 — position and weather

sailwx.info

Track history (hours):
 
Tides and Currents Weather Stations Pressure Air Temp Water Temp Dewpoint Dewpoint Depression Visibility Wind Speed Wind Dir Waves Ship Positions

Thomson Spirit

Last reported at 2017-Sep-25 22:25 UTC. Time now 2017-Sep-25 22:44 UTC.
Position N 44°30' E 013°41'.

Length 214 m; draft 8 m.

Type: Passenger vessel. MMSI: 248368000.

Date/timePositionNaut miles runAvg speedWind from/ knotsBaromVisibWave heightAir tempDewpointWater temp
2017-Sep-25 22:25N 44°30' E 013°41'716.4
2017-Sep-25 22:00N 44°36' E 013°35'816.3
2017-Sep-25 21:30N 44°42' E 013°29'816.2
2017-Sep-25 21:00N 44°49' E 013°23'816.5
2017-Sep-25 20:30N 44°56' E 013°17'816.4
2017-Sep-25 20:00N 45°03' E 013°10'816.5
2017-Sep-25 19:30N 45°10' E 013°04'815.4
2017-Sep-25 19:00N 45°17' E 012°60'612.9
2017-Sep-25 18:30N 45°20' E 012°52'713.1
2017-Sep-25 18:00N 45°22' E 012°43'713.5
2017-Sep-25 17:30N 45°22' E 012°33'713.2
2017-Sep-25 17:01N 45°26' E 012°25'3 6.4
2017-Sep-25 16:30N 45°26' E 012°20'1 2.6
2017-Sep-25 15:59N 45°26' E 012°19'0 0.0
2017-Sep-25 15:29N 45°26' E 012°19'0 0.0
2017-Sep-25 14:59N 45°26' E 012°19'0 0.0
2017-Sep-25 14:29N 45°26' E 012°19'0 0.0
2017-Sep-25 13:59N 45°26' E 012°19'0 0.0
2017-Sep-25 13:29N 45°26' E 012°19'0 0.0
2017-Sep-25 12:59N 45°26' E 012°19'0 0.0
2017-Sep-25 12:29N 45°26' E 012°19'0 0.0
2017-Sep-25 11:59N 45°26' E 012°19'0 0.0
2017-Sep-25 11:26N 45°26' E 012°19'0 0.0
2017-Sep-25 10:59N 45°26' E 012°19'0 0.0
2017-Sep-25 10:29N 45°26' E 012°19'0 0.0
2017-Sep-25 09:59N 45°26' E 012°19'0 0.0
2017-Sep-25 09:29N 45°26' E 012°19'0 0.0
2017-Sep-25 08:59N 45°26' E 012°19'0 0.0
2017-Sep-25 08:29N 45°26' E 012°19'0 0.0
2017-Sep-25 07:59N 45°26' E 012°19'0 0.0
2017-Sep-25 07:29N 45°26' E 012°19'0 0.0
2017-Sep-25 06:59N 45°26' E 012°19'0 0.0
2017-Sep-25 06:29N 45°26' E 012°19'0 0.0
2017-Sep-25 05:59N 45°26' E 012°19'0 0.0
2017-Sep-25 05:29N 45°26' E 012°19'1 1.2
2017-Sep-25 05:01N 45°26' E 012°19'3 5.5
2017-Sep-25 04:30N 45°26' E 012°23'4 8.3
2017-Sep-25 04:00N 45°24' E 012°28'5 9.7
2017-Sep-25 03:30N 45°22' E 012°35'5 9.9
2017-Sep-25 03:00N 45°22' E 012°42'4 9.0
2017-Sep-25 02:30N 45°23' E 012°48'4 8.8
2017-Sep-25 02:00N 45°23' E 012°54'4 8.8
2017-Sep-25 01:30N 45°23' E 013°00'510.4
2017-Sep-25 01:00N 45°22' E 013°08'815.1
2017-Sep-25 00:30N 45°15' E 013°10'714.7
2017-Sep-25 00:00N 45°08' E 013°14'815.1
2017-Sep-24 23:30N 45°03' E 013°22'815.2
2017-Sep-24 23:00N 44°57' E 013°29'713.4
2017-Sep-24 22:30N 44°53' E 013°36'4 8.5
2017-Sep-24 22:00N 44°50' E 013°40'4 8.6
2017-Sep-24 21:30N 44°46' E 013°44'5 9.6
2017-Sep-24 21:00N 44°43' E 013°49'5 9.0
2017-Sep-24 20:30N 44°41' E 013°55'4 8.4
2017-Sep-24 20:00N 44°42' E 014°00'4 9.0
2017-Sep-24 19:30N 44°46' E 014°03'4 8.7
2017-Sep-24 19:00N 44°50' E 014°06'7 9.0
2017-Sep-24 18:14N 44°56' E 014°11'14 9.4
2017-Sep-24 16:43N 45°10' E 014°16'311.1
2017-Sep-24 16:29N 45°12' E 014°18'611.1
2017-Sep-24 15:59N 45°16' E 014°23'3 0.3
2017-Sep-24 04:56N 45°18' E 014°27'613.9
2017-Sep-24 04:29N 45°13' E 014°21'713.7
2017-Sep-24 03:59N 45°08' E 014°15'714.0
2017-Sep-24 03:30N 45°01' E 014°13'1013.2
2017-Sep-24 02:44N 44°52' E 014°08'313.2
2017-Sep-24 02:30N 44°49' E 014°06'713.8
2017-Sep-24 02:00N 44°43' E 014°01'612.2
2017-Sep-24 01:30N 44°42' E 013°53'713.4
2017-Sep-24 01:00N 44°44' E 013°44'714.2
2017-Sep-24 00:30N 44°50' E 013°37'715.0
2017-Sep-24 00:01N 44°55' E 013°31'815.1
2017-Sep-23 23:31N 45°00' E 013°23'714.7
2017-Sep-23 23:00N 45°05' E 013°14'714.8
2017-Sep-23 22:30N 45°09' E 013°05'714.9
2017-Sep-23 22:01N 45°16' E 013°03'713.8
2017-Sep-23 21:30N 45°23' E 013°03'611.3
2017-Sep-23 21:00N 45°27' E 013°08'511.1
2017-Sep-23 20:30N 45°31' E 013°13'610.9
2017-Sep-23 19:59N 45°34' E 013°20'  
2017-Sep-18 22:36N 39°30' E 018°28'5014.1
2017-Sep-18 19:03N 40°01' E 017°37'114.3
2017-Sep-18 18:58N 40°02' E 017°36'714.6
2017-Sep-18 18:30N 40°07' E 017°30'714.4
2017-Sep-18 18:00N 40°12' E 017°23'713.9
2017-Sep-18 17:30N 40°17' E 017°16'713.9
2017-Sep-18 17:00N 40°21' E 017°10'5 9.3
2017-Sep-18 16:30N 40°26' E 017°10'4 6.4
2017-Sep-18 15:58N 40°29' E 017°13'0 0.0
2017-Sep-18 15:28N 40°29' E 017°13'0 0.0
2017-Sep-18 14:58N 40°29' E 017°13'0 0.0
2017-Sep-18 14:28N 40°29' E 017°13'0 0.0
2017-Sep-18 13:57N 40°29' E 017°13'0 0.0
2017-Sep-18 13:31N 40°29' E 017°13'0 0.0
2017-Sep-18 12:58N 40°29' E 017°13'0 0.0
2017-Sep-18 12:27N 40°29' E 017°13'0 0.0
2017-Sep-18 11:58N 40°29' E 017°13'0 0.0
2017-Sep-18 11:28N 40°29' E 017°13'0 0.0
2017-Sep-18 10:58N 40°29' E 017°13'0 0.0
2017-Sep-18 10:27N 40°29' E 017°13'0 0.0
2017-Sep-18 09:58N 40°29' E 017°13'0 0.0
2017-Sep-18 09:31N 40°29' E 017°13'0 0.0
2017-Sep-18 09:01N 40°29' E 017°13'0 0.0
2017-Sep-18 08:28N 40°29' E 017°13'0 0.0
2017-Sep-18 07:58N 40°29' E 017°13'0 0.3
2017-Sep-18 07:31N 40°28' E 017°13'4 8.2
2017-Sep-18 07:00N 40°25' E 017°10'510.7
2017-Sep-18 06:30N 40°20' E 017°09'713.3
2017-Sep-18 06:00N 40°13' E 017°11'713.3
2017-Sep-18 05:30N 40°07' E 017°13'713.4
2017-Sep-18 05:00N 40°01' E 017°15'713.3
2017-Sep-18 04:30N 39°54' E 017°18'612.9
2017-Sep-18 04:00N 39°48' E 017°20'712.6
2017-Sep-18 03:28N 39°41' E 017°22'13212.0
2017-Sep-17 16:29N 37°55' E 015°42'714.3
2017-Sep-17 16:00N 38°00' E 015°36'714.0
2017-Sep-17 15:30N 38°07' E 015°35'510.1
2017-Sep-17 15:01N 38°12' E 015°34'1 1.1
2017-Sep-17 14:30N 38°12' E 015°33'0 0.0
2017-Sep-17 14:00N 38°12' E 015°33'0 0.0
2017-Sep-17 13:30N 38°12' E 015°33'0 0.0
2017-Sep-17 13:00N 38°12' E 015°33'0 0.0
2017-Sep-17 12:29N 38°12' E 015°33'0 0.0
2017-Sep-17 12:00N 38°12' E 015°33'0 0.0
2017-Sep-17 11:30N 38°12' E 015°33'0 0.0
2017-Sep-17 11:00N 38°12' E 015°33'0 0.0
2017-Sep-17 10:29N 38°12' E 015°33'0 0.0
2017-Sep-17 10:00N 38°12' E 015°33'0 0.0
2017-Sep-17 09:30N 38°12' E 015°33'0 0.0
2017-Sep-17 08:54N 38°12' E 015°33'0 0.0
2017-Sep-17 08:24N 38°12' E 015°33'0 0.0
2017-Sep-17 08:00N 38°12' E 015°33'0 0.0
2017-Sep-17 07:30N 38°12' E 015°33'0 0.0
2017-Sep-17 07:00N 38°12' E 015°33'0 0.0
2017-Sep-17 06:30N 38°12' E 015°33'0 0.0
2017-Sep-17 06:00N 38°12' E 015°33'0 0.2
2017-Sep-17 05:31N 38°12' E 015°34'3 5.0
2017-Sep-17 05:00N 38°11' E 015°37'611.1
2017-Sep-17 04:30N 38°06' E 015°36'5 9.5
2017-Sep-17 04:01N 38°01' E 015°35'510.2
2017-Sep-17 03:30N 37°56' E 015°36'510.2
2017-Sep-17 03:00N 37°51' E 015°36'510.4
2017-Sep-17 02:30N 37°46' E 015°37'510.5
2017-Sep-17 02:00N 37°41' E 015°37'612.2
2017-Sep-17 01:30N 37°34' E 015°37'612.1
2017-Sep-17 01:01N 37°28' E 015°38'612.7
2017-Sep-17 00:31N 37°22' E 015°38'612.6
2017-Sep-17 00:00N 37°16' E 015°38'612.5
2017-Sep-16 23:30N 37°09' E 015°38'612.7
2017-Sep-16 23:01N 37°03' E 015°38'612.7
2017-Sep-16 22:31N 36°57' E 015°37'713.4
2017-Sep-16 22:00N 36°51' E 015°33'713.3
2017-Sep-16 21:30N 36°45' E 015°29'713.5
2017-Sep-16 21:00N 36°39' E 015°25'813.6
2017-Sep-16 20:27N 36°33' E 015°21'713.5
2017-Sep-16 19:54N 36°27' E 015°15'2212.9
2017-Sep-16 18:12N 36°12' E 014°55'312.8
2017-Sep-16 18:00N 36°10' E 014°53'612.8
2017-Sep-16 17:30N 36°06' E 014°47'612.7
2017-Sep-16 17:00N 36°02' E 014°41'612.6
2017-Sep-16 16:30N 35°57' E 014°35'5 9.9
2017-Sep-16 16:00N 35°54' E 014°31'0 0.4
2017-Sep-16 14:57N 35°53' E 014°31'0 0.0
2017-Sep-16 14:28N 35°53' E 014°31'0 0.0
2017-Sep-16 13:58N 35°53' E 014°31'0 0.0
2017-Sep-16 13:28N 35°53' E 014°31'0 0.0
2017-Sep-16 12:57N 35°53' E 014°31'0 0.0
2017-Sep-16 12:25N 35°53' E 014°31'0 0.0
2017-Sep-16 11:34N 35°53' E 014°31'0 0.0
2017-Sep-16 11:28N 35°53' E 014°31'0 0.0
2017-Sep-16 10:58N 35°53' E 014°31'0 0.0
2017-Sep-16 09:58N 35°53' E 014°31'0 0.0
2017-Sep-16 09:09N 35°53' E 014°31'0 0.0
2017-Sep-16 08:16N 35°53' E 014°31'0 0.0
2017-Sep-16 07:58N 35°53' E 014°31'1 0.3
2017-Sep-16 05:16N 35°54' E 014°31'2 7.6
2017-Sep-16 05:00N 35°55' E 014°33'713.7
2017-Sep-16 04:30N 35°60' E 014°39'713.4
2017-Sep-16 04:00N 36°05' E 014°45'713.0
2017-Sep-16 03:30N 36°09' E 014°51'613.0
2017-Sep-16 03:00N 36°14' E 014°57'612.7
2017-Sep-16 02:30N 36°18' E 015°02'612.6
2017-Sep-16 02:00N 36°22' E 015°08'713.7
2017-Sep-16 01:30N 36°27' E 015°14'713.9
2017-Sep-16 01:00N 36°32' E 015°21'714.1
2017-Sep-16 00:30N 36°37' E 015°26'714.2
2017-Sep-16 00:00N 36°43' E 015°32'1314.1
2017-Sep-15 23:06N 36°53' E 015°42'313.9
2017-Sep-15 22:53N 36°55' E 015°44'613.6
2017-Sep-15 22:25N 36°60' E 015°49'  
Track history (hours):
 
Tides and Currents Weather Stations Pressure Air Temp Water Temp Dewpoint Dewpoint Depression Visibility Wind Speed Wind Dir Waves Ship Positions

Thomson Spirit

Last reported at 2017-Sep-25 22:25 UTC. Time now 2017-Sep-25 22:44 UTC.
Position N 44°30' E 013°41'.

Length 214 m; draft 8 m.

Type: Passenger vessel. MMSI: 248368000.

Date/timePositionNaut miles runAvg speedWind from/ knotsBaromVisibWave heightAir tempDewpointWater temp
2017-Sep-25 22:25N 44°30' E 013°41'716.4
2017-Sep-25 22:00N 44°36' E 013°35'816.3
2017-Sep-25 21:30N 44°42' E 013°29'816.2
2017-Sep-25 21:00N 44°49' E 013°23'816.5
2017-Sep-25 20:30N 44°56' E 013°17'816.4
2017-Sep-25 20:00N 45°03' E 013°10'816.5
2017-Sep-25 19:30N 45°10' E 013°04'815.4
2017-Sep-25 19:00N 45°17' E 012°60'612.9
2017-Sep-25 18:30N 45°20' E 012°52'713.1
2017-Sep-25 18:00N 45°22' E 012°43'713.5
2017-Sep-25 17:30N 45°22' E 012°33'713.2
2017-Sep-25 17:01N 45°26' E 012°25'3 6.4
2017-Sep-25 16:30N 45°26' E 012°20'1 2.6
2017-Sep-25 15:59N 45°26' E 012°19'0 0.0
2017-Sep-25 15:29N 45°26' E 012°19'0 0.0
2017-Sep-25 14:59N 45°26' E 012°19'0 0.0
2017-Sep-25 14:29N 45°26' E 012°19'0 0.0
2017-Sep-25 13:59N 45°26' E 012°19'0 0.0
2017-Sep-25 13:29N 45°26' E 012°19'0 0.0
2017-Sep-25 12:59N 45°26' E 012°19'0 0.0
2017-Sep-25 12:29N 45°26' E 012°19'0 0.0
2017-Sep-25 11:59N 45°26' E 012°19'0 0.0
2017-Sep-25 11:26N 45°26' E 012°19'0 0.0
2017-Sep-25 10:59N 45°26' E 012°19'0 0.0
2017-Sep-25 10:29N 45°26' E 012°19'0 0.0
2017-Sep-25 09:59N 45°26' E 012°19'0 0.0
2017-Sep-25 09:29N 45°26' E 012°19'0 0.0
2017-Sep-25 08:59N 45°26' E 012°19'0 0.0
2017-Sep-25 08:29N 45°26' E 012°19'0 0.0
2017-Sep-25 07:59N 45°26' E 012°19'0 0.0
2017-Sep-25 07:29N 45°26' E 012°19'0 0.0
2017-Sep-25 06:59N 45°26' E 012°19'0 0.0
2017-Sep-25 06:29N 45°26' E 012°19'0 0.0
2017-Sep-25 05:59N 45°26' E 012°19'0 0.0
2017-Sep-25 05:29N 45°26' E 012°19'1 1.2
2017-Sep-25 05:01N 45°26' E 012°19'3 5.5
2017-Sep-25 04:30N 45°26' E 012°23'4 8.3
2017-Sep-25 04:00N 45°24' E 012°28'5 9.7
2017-Sep-25 03:30N 45°22' E 012°35'5 9.9
2017-Sep-25 03:00N 45°22' E 012°42'4 9.0
2017-Sep-25 02:30N 45°23' E 012°48'4 8.8
2017-Sep-25 02:00N 45°23' E 012°54'4 8.8
2017-Sep-25 01:30N 45°23' E 013°00'510.4
2017-Sep-25 01:00N 45°22' E 013°08'815.1
2017-Sep-25 00:30N 45°15' E 013°10'714.7
2017-Sep-25 00:00N 45°08' E 013°14'815.1
2017-Sep-24 23:30N 45°03' E 013°22'815.2
2017-Sep-24 23:00N 44°57' E 013°29'713.4
2017-Sep-24 22:30N 44°53' E 013°36'4 8.5
2017-Sep-24 22:00N 44°50' E 013°40'4 8.6
2017-Sep-24 21:30N 44°46' E 013°44'5 9.6
2017-Sep-24 21:00N 44°43' E 013°49'5 9.0
2017-Sep-24 20:30N 44°41' E 013°55'4 8.4
2017-Sep-24 20:00N 44°42' E 014°00'4 9.0
2017-Sep-24 19:30N 44°46' E 014°03'4 8.7
2017-Sep-24 19:00N 44°50' E 014°06'7 9.0
2017-Sep-24 18:14N 44°56' E 014°11'14 9.4
2017-Sep-24 16:43N 45°10' E 014°16'311.1
2017-Sep-24 16:29N 45°12' E 014°18'611.1
2017-Sep-24 15:59N 45°16' E 014°23'3 0.3
2017-Sep-24 04:56N 45°18' E 014°27'613.9
2017-Sep-24 04:29N 45°13' E 014°21'713.7
2017-Sep-24 03:59N 45°08' E 014°15'714.0
2017-Sep-24 03:30N 45°01' E 014°13'1013.2
2017-Sep-24 02:44N 44°52' E 014°08'313.2
2017-Sep-24 02:30N 44°49' E 014°06'713.8
2017-Sep-24 02:00N 44°43' E 014°01'612.2
2017-Sep-24 01:30N 44°42' E 013°53'713.4
2017-Sep-24 01:00N 44°44' E 013°44'714.2
2017-Sep-24 00:30N 44°50' E 013°37'715.0
2017-Sep-24 00:01N 44°55' E 013°31'815.1
2017-Sep-23 23:31N 45°00' E 013°23'714.7
2017-Sep-23 23:00N 45°05' E 013°14'714.8
2017-Sep-23 22:30N 45°09' E 013°05'714.9
2017-Sep-23 22:01N 45°16' E 013°03'713.8
2017-Sep-23 21:30N 45°23' E 013°03'611.3
2017-Sep-23 21:00N 45°27' E 013°08'511.1
2017-Sep-23 20:30N 45°31' E 013°13'610.9
2017-Sep-23 19:59N 45°34' E 013°20'  
2017-Sep-18 22:36N 39°30' E 018°28'5014.1
2017-Sep-18 19:03N 40°01' E 017°37'114.3
2017-Sep-18 18:58N 40°02' E 017°36'714.6
2017-Sep-18 18:30N 40°07' E 017°30'714.4
2017-Sep-18 18:00N 40°12' E 017°23'713.9
2017-Sep-18 17:30N 40°17' E 017°16'713.9
2017-Sep-18 17:00N 40°21' E 017°10'5 9.3
2017-Sep-18 16:30N 40°26' E 017°10'4 6.4
2017-Sep-18 15:58N 40°29' E 017°13'0 0.0
2017-Sep-18 15:28N 40°29' E 017°13'0 0.0
2017-Sep-18 14:58N 40°29' E 017°13'0 0.0
2017-Sep-18 14:28N 40°29' E 017°13'0 0.0
2017-Sep-18 13:57N 40°29' E 017°13'0 0.0
2017-Sep-18 13:31N 40°29' E 017°13'0 0.0
2017-Sep-18 12:58N 40°29' E 017°13'0 0.0
2017-Sep-18 12:27N 40°29' E 017°13'0 0.0
2017-Sep-18 11:58N 40°29' E 017°13'0 0.0
2017-Sep-18 11:28N 40°29' E 017°13'0 0.0
2017-Sep-18 10:58N 40°29' E 017°13'0 0.0
2017-Sep-18 10:27N 40°29' E 017°13'0 0.0
2017-Sep-18 09:58N 40°29' E 017°13'0 0.0
2017-Sep-18 09:31N 40°29' E 017°13'0 0.0
2017-Sep-18 09:01N 40°29' E 017°13'0 0.0
2017-Sep-18 08:28N 40°29' E 017°13'0 0.0
2017-Sep-18 07:58N 40°29' E 017°13'0 0.3
2017-Sep-18 07:31N 40°28' E 017°13'4 8.2
2017-Sep-18 07:00N 40°25' E 017°10'510.7
2017-Sep-18 06:30N 40°20' E 017°09'713.3
2017-Sep-18 06:00N 40°13' E 017°11'713.3
2017-Sep-18 05:30N 40°07' E 017°13'713.4
2017-Sep-18 05:00N 40°01' E 017°15'713.3
2017-Sep-18 04:30N 39°54' E 017°18'612.9
2017-Sep-18 04:00N 39°48' E 017°20'712.6
2017-Sep-18 03:28N 39°41' E 017°22'13212.0
2017-Sep-17 16:29N 37°55' E 015°42'714.3
2017-Sep-17 16:00N 38°00' E 015°36'714.0
2017-Sep-17 15:30N 38°07' E 015°35'510.1
2017-Sep-17 15:01N 38°12' E 015°34'1 1.1
2017-Sep-17 14:30N 38°12' E 015°33'0 0.0
2017-Sep-17 14:00N 38°12' E 015°33'0 0.0
2017-Sep-17 13:30N 38°12' E 015°33'0 0.0
2017-Sep-17 13:00N 38°12' E 015°33'0 0.0
2017-Sep-17 12:29N 38°12' E 015°33'0 0.0
2017-Sep-17 12:00N 38°12' E 015°33'0 0.0
2017-Sep-17 11:30N 38°12' E 015°33'0 0.0
2017-Sep-17 11:00N 38°12' E 015°33'0 0.0
2017-Sep-17 10:29N 38°12' E 015°33'0 0.0
2017-Sep-17 10:00N 38°12' E 015°33'0 0.0
2017-Sep-17 09:30N 38°12' E 015°33'0 0.0
2017-Sep-17 08:54N 38°12' E 015°33'0 0.0
2017-Sep-17 08:24N 38°12' E 015°33'0 0.0
2017-Sep-17 08:00N 38°12' E 015°33'0 0.0
2017-Sep-17 07:30N 38°12' E 015°33'0 0.0
2017-Sep-17 07:00N 38°12' E 015°33'0 0.0
2017-Sep-17 06:30N 38°12' E 015°33'0 0.0
2017-Sep-17 06:00N 38°12' E 015°33'0 0.2
2017-Sep-17 05:31N 38°12' E 015°34'3 5.0
2017-Sep-17 05:00N 38°11' E 015°37'611.1
2017-Sep-17 04:30N 38°06' E 015°36'5 9.5
2017-Sep-17 04:01N 38°01' E 015°35'510.2
2017-Sep-17 03:30N 37°56' E 015°36'510.2
2017-Sep-17 03:00N 37°51' E 015°36'510.4
2017-Sep-17 02:30N 37°46' E 015°37'510.5
2017-Sep-17 02:00N 37°41' E 015°37'612.2
2017-Sep-17 01:30N 37°34' E 015°37'612.1
2017-Sep-17 01:01N 37°28' E 015°38'612.7
2017-Sep-17 00:31N 37°22' E 015°38'612.6
2017-Sep-17 00:00N 37°16' E 015°38'612.5
2017-Sep-16 23:30N 37°09' E 015°38'612.7
2017-Sep-16 23:01N 37°03' E 015°38'612.7
2017-Sep-16 22:31N 36°57' E 015°37'713.4
2017-Sep-16 22:00N 36°51' E 015°33'713.3
2017-Sep-16 21:30N 36°45' E 015°29'713.5
2017-Sep-16 21:00N 36°39' E 015°25'813.6
2017-Sep-16 20:27N 36°33' E 015°21'713.5
2017-Sep-16 19:54N 36°27' E 015°15'2212.9
2017-Sep-16 18:12N 36°12' E 014°55'312.8
2017-Sep-16 18:00N 36°10' E 014°53'612.8
2017-Sep-16 17:30N 36°06' E 014°47'612.7
2017-Sep-16 17:00N 36°02' E 014°41'612.6
2017-Sep-16 16:30N 35°57' E 014°35'5 9.9
2017-Sep-16 16:00N 35°54' E 014°31'0 0.4
2017-Sep-16 14:57N 35°53' E 014°31'0 0.0
2017-Sep-16 14:28N 35°53' E 014°31'0 0.0
2017-Sep-16 13:58N 35°53' E 014°31'0 0.0
2017-Sep-16 13:28N 35°53' E 014°31'0 0.0
2017-Sep-16 12:57N 35°53' E 014°31'0 0.0
2017-Sep-16 12:25N 35°53' E 014°31'0 0.0
2017-Sep-16 11:34N 35°53' E 014°31'0 0.0
2017-Sep-16 11:28N 35°53' E 014°31'0 0.0
2017-Sep-16 10:58N 35°53' E 014°31'0 0.0
2017-Sep-16 09:58N 35°53' E 014°31'0 0.0
2017-Sep-16 09:09N 35°53' E 014°31'0 0.0
2017-Sep-16 08:16N 35°53' E 014°31'0 0.0
2017-Sep-16 07:58N 35°53' E 014°31'1 0.3
2017-Sep-16 05:16N 35°54' E 014°31'2 7.6
2017-Sep-16 05:00N 35°55' E 014°33'713.7
2017-Sep-16 04:30N 35°60' E 014°39'713.4
2017-Sep-16 04:00N 36°05' E 014°45'713.0
2017-Sep-16 03:30N 36°09' E 014°51'613.0
2017-Sep-16 03:00N 36°14' E 014°57'612.7
2017-Sep-16 02:30N 36°18' E 015°02'612.6
2017-Sep-16 02:00N 36°22' E 015°08'713.7
2017-Sep-16 01:30N 36°27' E 015°14'713.9
2017-Sep-16 01:00N 36°32' E 015°21'714.1
2017-Sep-16 00:30N 36°37' E 015°26'714.2
2017-Sep-16 00:00N 36°43' E 015°32'1314.1
2017-Sep-15 23:06N 36°53' E 015°42'313.9
2017-Sep-15 22:53N 36°55' E 015°44'613.6
2017-Sep-15 22:25N 36°60' E 015°49'  

Dump ship's entire track history